PROFILE

 METAR AND TAF INFORMATION
ADDS - METARS form results

(0714 UTC 25 January 2022)
http://aviationweather.gov/metar/data/
 
GMME 250700Z 12003KT 5000 SCT013 SCT016 06/06 Q1019 NOSIG
GMME 250630Z 09003KT 5000 SCT013 SCT016 06/06 Q1019 NOSIG
TAF GMME 250500Z 2506/2612 09008KT 5000 SCT013 SCT016 TEMPO 2509/2514 29010KT BKN015 

 AIRPORT MAP

 RUNWAY INFORMATION
Runway 04 Runway length 11483 ft Runway width 148 ft
Runway elevation 273 ft Runway displaced threshold 0 ft Runway heading 31
Runway 22 Runway length 11483 ft Runway width 148 ft
Runway elevation 240 ft Runway displaced threshold 0 ft Runway heading 211

 AIRPORT FREQUENCIES
Type APP Name APP Frequency 118.9 MHZ
Type TWR Name TWR Frequency 118.3 MHZ

 AIRPORT NEAR NAVIGATION AIDS
Type VOR-DME Name Rabat Frequency 116500 KHZ
Type NDB Name Rabat Frequency 332 KHZ